Time;durP1;ratioP1;P1;durP2;ratioP2;P2;SDS_P1;SDS_P2;PMS_P1;PMS_P2;Temp;Humidity;BMP_temperature;BMP_pressure;BME280_temperature;BME280_humidity;BME280_pressure;Samples;Min_cycle;Max_cycle;Signal;HPM_P1;HPM_P2
2021/04/02 00:00:25;;;;;;;10.52;3.03;;;2.60;95.50;;;;;;5074088;28;20041;-78
2021/04/02 00:02:51;;;;;;;11.18;3.65;;;2.60;95.60;;;;;;5074439;28;20044;-78
2021/04/02 00:05:20;;;;;;;7.28;2.67;;;2.60;95.70;;;;;;5074007;28;20032;-78
2021/04/02 00:07:46;;;;;;;13.10;3.17;;;2.60;95.90;;;;;;5069623;28;20036;-78
2021/04/02 00:10:16;;;;;;;8.25;2.88;;;2.70;95.90;;;;;;5071614;28;20492;-78
2021/04/02 00:12:42;;;;;;;10.23;2.75;;;2.70;96.00;;;;;;5066726;28;20381;-78
2021/04/02 00:15:14;;;;;;;8.80;3.20;;;2.70;95.90;;;;;;5072609;28;20047;-78
2021/04/02 00:17:40;;;;;;;8.10;2.85;;;2.70;95.80;;;;;;5080678;28;20028;-78
2021/04/02 00:20:08;;;;;;;13.38;2.88;;;2.70;95.60;;;;;;5080641;28;20084;-78
2021/04/02 00:22:34;;;;;;;8.13;2.97;;;2.70;95.70;;;;;;5075959;28;20036;-78
2021/04/02 00:25:00;;;;;;;8.85;3.53;;;2.70;95.80;;;;;;5070992;28;20093;-78
2021/04/02 00:27:26;;;;;;;11.63;3.13;;;2.70;95.50;;;;;;5079178;28;20391;-78
2021/04/02 00:29:52;;;;;;;15.35;2.92;;;2.70;95.70;;;;;;5072287;28;20036;-78
2021/04/02 00:32:18;;;;;;;6.90;3.20;;;2.70;95.60;;;;;;5075464;28;20043;-78
2021/04/02 00:34:43;;;;;;;7.68;2.70;;;2.70;95.80;;;;;;5077083;28;20054;-78
2021/04/02 00:37:09;;;;;;;9.82;2.75;;;2.70;95.80;;;;;;5077527;28;20087;-78
2021/04/02 00:39:35;;;;;;;8.05;2.33;;;2.70;95.90;;;;;;5070194;28;20119;-78
2021/04/02 00:42:00;;;;;;;6.22;2.13;;;2.70;95.80;;;;;;5075270;28;20063;-78
2021/04/02 00:44:28;;;;;;;9.63;2.47;;;2.70;95.90;;;;;;5072100;28;20473;-78
2021/04/02 00:46:55;;;;;;;8.85;2.67;;;2.70;95.80;;;;;;5086687;28;20048;-78
2021/04/02 00:49:20;;;;;;;5.65;2.78;;;2.70;95.70;;;;;;5073785;28;20048;-78
2021/04/02 00:51:46;;;;;;;7.50;3.03;;;2.70;95.60;;;;;;5076845;28;20047;-76
2021/04/02 00:54:12;;;;;;;8.00;3.05;;;2.70;95.80;;;;;;5071002;28;20404;-78
2021/04/02 00:56:38;;;;;;;10.35;3.28;;;2.70;95.80;;;;;;5083176;28;20069;-77
2021/04/02 00:59:05;;;;;;;11.25;2.58;;;2.70;95.90;;;;;;5078110;28;20169;-77
2021/04/02 01:01:31;;;;;;;11.48;2.90;;;2.70;96.00;;;;;;5068303;28;20119;-76
2021/04/02 01:03:57;;;;;;;6.57;2.60;;;2.70;95.90;;;;;;5081669;28;20442;-76
2021/04/02 01:06:26;;;;;;;6.80;2.70;;;2.70;95.80;;;;;;5069483;28;20032;-76
2021/04/02 01:08:53;;;;;;;7.43;2.72;;;2.70;95.60;;;;;;5074509;28;20109;-77
2021/04/02 01:11:21;;;;;;;12.52;2.95;;;2.70;95.80;;;;;;5069972;28;20034;-77
2021/04/02 01:13:50;;;;;;;7.65;2.78;;;2.70;95.90;;;;;;5074479;28;20737;-77
2021/04/02 01:16:25;;;;;;;12.35;2.70;;;2.70;95.70;;;;;;5071905;28;20119;-77
2021/04/02 01:18:59;;;;;;;;;;;2.70;96.00;;;;;;5074413;28;20044;-77
2021/04/02 01:21:34;;;;;;;8.57;2.67;;;2.60;96.30;;;;;;5073026;28;20893;-77
2021/04/02 01:24:21;;;;;;;10.30;2.75;;;2.60;96.10;;;;;;5072615;28;20043;-77
2021/04/02 01:26:56;;;;;;;9.27;2.85;;;2.60;96.10;;;;;;5071187;28;20040;-76
2021/04/02 01:29:23;;;;;;;;;;;2.60;96.10;;;;;;5074227;28;20058;-76
2021/04/02 01:31:56;;;;;;;5.60;2.50;;;2.60;96.60;;;;;;5075038;28;19916;-77
2021/04/02 01:34:31;;;;;;;10.10;3.08;;;2.60;96.40;;;;;;5083642;28;20055;-77
2021/04/02 01:37:00;;;;;;;;;;;2.60;96.20;;;;;;5069860;28;20043;-77
2021/04/02 01:39:26;;;;;;;11.80;2.92;;;2.60;96.80;;;;;;5082004;28;20206;-76
2021/04/02 01:41:55;;;;;;;10.85;2.90;;;2.60;96.40;;;;;;5067628;28;20083;-78
2021/04/02 01:44:22;;;;;;;14.30;3.33;;;2.60;96.10;;;;;;5082857;28;20028;-77
2021/04/02 01:46:49;;;;;;;13.02;3.55;;;2.60;96.10;;;;;;5076518;28;20033;-77
2021/04/02 01:49:15;;;;;;;10.05;3.72;;;2.60;96.20;;;;;;5081138;28;20095;-77
2021/04/02 01:51:44;;;;;;;11.07;3.45;;;2.60;96.10;;;;;;5069117;28;20440;-77
2021/04/02 01:54:10;;;;;;;10.30;3.70;;;2.60;96.10;;;;;;5072886;28;20040;-77
2021/04/02 01:56:37;;;;;;;8.75;3.75;;;2.60;96.20;;;;;;5070610;28;20032;-77
2021/04/02 01:59:04;;;;;;;11.32;3.50;;;2.70;96.50;;;;;;5076083;28;20389;-77
2021/04/02 02:01:42;;;;;;;11.77;4.25;;;2.70;96.40;;;;;;5076172;28;20051;-77
2021/04/02 02:04:08;;;;;;;9.23;3.78;;;2.80;96.50;;;;;;5070497;28;20214;-77
2021/04/02 02:06:35;;;;;;;13.10;4.20;;;2.90;96.50;;;;;;5077960;28;20041;-77
2021/04/02 02:09:23;;;;;;;8.30;3.60;;;2.90;96.70;;;;;;5069272;28;20168;-77
2021/04/02 02:11:55;;;;;;;12.70;4.10;;;2.90;96.40;;;;;;5083131;28;20114;-77
2021/04/02 02:14:24;;;;;;;14.75;4.57;;;3.00;96.40;;;;;;5071355;28;20044;-77
2021/04/02 02:16:55;;;;;;;13.38;5.18;;;3.10;96.80;;;;;;5072483;28;20032;-77
2021/04/02 02:19:23;;;;;;;13.73;4.50;;;3.20;96.80;;;;;;5068412;28;20036;-77
2021/04/02 02:21:51;;;;;;;12.95;4.78;;;3.30;96.80;;;;;;5075544;28;20040;-77
2021/04/02 02:24:18;;;;;;;10.70;4.22;;;3.40;97.00;;;;;;5068315;28;20041;-77
2021/04/02 02:26:44;;;;;;;11.52;4.80;;;3.50;96.80;;;;;;5076529;28;20032;-77
2021/04/02 02:29:10;;;;;;;12.40;4.97;;;3.60;96.60;;;;;;5072256;28;20040;-77
2021/04/02 02:31:37;;;;;;;15.10;4.90;;;3.60;96.70;;;;;;5077468;28;20044;-77
2021/04/02 02:34:07;;;;;;;12.27;4.35;;;3.60;96.50;;;;;;5068603;28;20040;-77
2021/04/02 02:36:33;;;;;;;10.95;4.43;;;3.60;96.30;;;;;;5080080;28;20036;-77
2021/04/02 02:39:00;;;;;;;12.75;4.53;;;3.60;96.40;;;;;;5068062;28;20479;-77
2021/04/02 02:41:28;;;;;;;14.05;4.40;;;3.50;96.20;;;;;;5082531;28;20102;-77
2021/04/02 02:43:55;;;;;;;12.70;4.25;;;3.50;96.20;;;;;;5073219;28;20126;-77
2021/04/02 02:46:23;;;;;;;14.68;4.55;;;3.50;96.30;;;;;;5076245;28;20055;-77
2021/04/02 02:48:54;;;;;;;12.85;4.53;;;3.50;96.30;;;;;;5083209;28;20044;-78
2021/04/02 02:51:21;;;;;;;11.00;3.72;;;3.50;96.30;;;;;;5079047;28;20128;-77
2021/04/02 02:53:48;;;;;;;10.20;4.57;;;3.40;96.10;;;;;;5071324;28;20490;-77
2021/04/02 02:56:16;;;;;;;9.35;4.43;;;3.40;96.10;;;;;;5082536;28;20075;-77
2021/04/02 02:58:43;;;;;;;14.35;4.00;;;3.30;96.10;;;;;;5082184;28;20044;-77
2021/04/02 03:01:13;;;;;;;10.15;4.25;;;3.30;96.20;;;;;;5074220;28;20049;-78
2021/04/02 03:03:39;;;;;;;12.25;4.20;;;3.30;96.00;;;;;;5073731;28;20032;-78
2021/04/02 03:06:07;;;;;;;9.02;3.67;;;3.30;96.30;;;;;;5074571;28;20106;-78
2021/04/02 03:08:41;;;;;;;11.90;3.63;;;3.20;96.00;;;;;;5078305;28;20040;-78
2021/04/02 03:11:09;;;;;;;10.43;3.33;;;3.20;96.00;;;;;;5070133;28;20071;-78
2021/04/02 03:13:37;;;;;;;10.50;3.50;;;3.20;96.00;;;;;;5083204;28;20070;-78
2021/04/02 03:16:03;;;;;;;8.57;3.05;;;3.20;95.90;;;;;;5068246;28;20034;-77
2021/04/02 03:18:30;;;;;;;7.25;3.13;;;3.20;95.90;;;;;;5075522;28;20056;-77
2021/04/02 03:20:56;;;;;;;17.65;3.70;;;3.20;95.80;;;;;;5069283;28;20451;-77
2021/04/02 03:23:24;;;;;;;13.63;3.60;;;3.20;95.80;;;;;;5080023;28;20048;-77
2021/04/02 03:25:51;;;;;;;12.15;3.10;;;3.20;95.80;;;;;;5066205;28;20059;-77
2021/04/02 03:28:18;;;;;;;11.23;3.33;;;3.20;95.90;;;;;;5074302;28;20055;-77
2021/04/02 03:30:45;;;;;;;14.23;2.95;;;3.20;95.80;;;;;;5069877;28;20032;-77
2021/04/02 03:33:30;;;;;;;14.40;3.03;;;3.20;95.70;;;;;;5079398;28;20115;-77
2021/04/02 03:36:00;;;;;;;11.88;3.28;;;3.20;95.60;;;;;;5076392;28;20334;-77
2021/04/02 03:38:31;;;;;;;11.13;3.05;;;3.20;95.60;;;;;;5071718;28;20047;-77
2021/04/02 03:40:59;;;;;;;13.68;3.15;;;3.20;95.50;;;;;;5073634;28;20032;-77
2021/04/02 03:43:26;;;;;;;13.38;2.75;;;3.10;95.50;;;;;;5074003;28;20060;-77
2021/04/02 03:45:52;;;;;;;10.35;3.80;;;3.10;95.50;;;;;;5068291;28;20071;-77
2021/04/02 03:48:20;;;;;;;7.70;2.85;;;3.00;95.40;;;;;;5074883;28;20361;-77
2021/04/02 03:50:53;;;;;;;8.20;2.90;;;3.00;95.40;;;;;;5071810;28;20048;-77
2021/04/02 03:53:26;;;;;;;10.57;3.08;;;2.90;95.30;;;;;;5080399;28;20656;-77
2021/04/02 03:55:55;;;;;;;10.55;3.42;;;2.80;95.40;;;;;;5076927;28;20396;-77
2021/04/02 03:58:23;;;;;;;11.63;3.38;;;2.90;95.50;;;;;;5068049;28;20041;-77
2021/04/02 04:00:59;;;;;;;11.10;2.70;;;2.80;95.60;;;;;;5079182;28;20096;-77
2021/04/02 04:03:25;;;;;;;7.53;2.75;;;2.80;95.50;;;;;;5068599;28;20094;-77
2021/04/02 04:05:56;;;;;;;17.67;3.78;;;2.80;95.70;;;;;;5072178;28;20075;-77
2021/04/02 04:08:24;;;;;;;11.98;3.20;;;2.80;95.60;;;;;;5064176;28;20098;-77
2021/04/02 04:10:51;;;;;;;11.23;2.88;;;2.80;95.60;;;;;;5079867;28;20036;-77
2021/04/02 04:13:20;;;;;;;11.00;3.25;;;2.80;95.60;;;;;;5067460;28;20128;-77
2021/04/02 04:15:46;;;;;;;10.30;3.00;;;2.70;95.60;;;;;;5071687;28;20091;-77
2021/04/02 04:18:15;;;;;;;17.98;3.60;;;2.70;95.60;;;;;;5071194;28;20059;-77
2021/04/02 04:20:45;;;;;;;15.10;3.35;;;2.70;95.50;;;;;;5070735;28;20032;-77
2021/04/02 04:23:13;;;;;;;14.20;3.35;;;2.70;95.70;;;;;;5066021;28;20076;-77
2021/04/02 04:25:40;;;;;;;15.82;3.78;;;2.60;95.90;;;;;;5076228;28;20041;-77
2021/04/02 04:28:09;;;;;;;12.63;3.30;;;2.60;95.70;;;;;;5069781;28;20024;-77
2021/04/02 04:30:35;;;;;;;16.75;3.63;;;2.70;95.70;;;;;;5073776;28;20119;-77
2021/04/02 04:33:02;;;;;;;16.50;3.28;;;2.70;96.00;;;;;;5069109;28;20037;-78
2021/04/02 04:35:30;;;;;;;15.50;3.17;;;2.70;96.10;;;;;;5072804;28;20496;-78
2021/04/02 04:37:57;;;;;;;10.13;3.35;;;2.80;96.20;;;;;;5066747;28;20115;-78
2021/04/02 04:40:25;;;;;;;13.75;2.70;;;2.90;96.10;;;;;;5069621;28;20090;-78
2021/04/02 04:42:51;;;;;;;9.45;3.00;;;2.90;96.30;;;;;;5078785;28;20054;-78
2021/04/02 04:45:20;;;;;;;13.32;4.05;;;3.00;96.40;;;;;;5071346;28;20066;-78
2021/04/02 04:47:46;;;;;;;14.82;3.30;;;3.10;96.20;;;;;;5075536;28;20040;-78
2021/04/02 04:50:14;;;;;;;15.30;3.50;;;3.20;96.20;;;;;;5067215;28;20067;-78
2021/04/02 04:52:58;;;;;;;15.05;3.55;;;3.20;96.20;;;;;;5079132;28;20514;-78
2021/04/02 04:55:26;;;;;;;9.10;2.63;;;3.30;96.50;;;;;;5075721;28;20044;-78
2021/04/02 04:57:54;;;;;;;9.40;2.92;;;3.40;96.10;;;;;;5082380;28;20115;-78
2021/04/02 05:00:22;;;;;;;13.13;3.40;;;3.40;96.10;;;;;;5071068;28;20379;-78
2021/04/02 05:02:50;;;;;;;12.43;2.95;;;3.50;96.10;;;;;;5077978;28;20032;-78
2021/04/02 05:05:25;;;;;;;10.05;2.42;;;3.50;96.10;;;;;;5076265;28;20076;-78
2021/04/02 05:07:53;;;;;;;8.38;2.47;;;3.70;95.90;;;;;;5080104;28;20035;-78
2021/04/02 05:10:20;;;;;;;10.95;2.50;;;3.80;95.60;;;;;;5075293;28;20120;-78
2021/04/02 05:12:48;;;;;;;11.18;2.88;;;3.90;95.40;;;;;;5076343;28;20423;-78
2021/04/02 05:15:15;;;;;;;13.18;3.65;;;4.00;95.10;;;;;;5080117;28;20039;-78
2021/04/02 05:17:42;;;;;;;10.75;2.75;;;4.10;94.90;;;;;;5075680;28;20579;-77
2021/04/02 05:20:10;;;;;;;14.07;2.92;;;4.20;94.80;;;;;;5078825;28;20053;-78
2021/04/02 05:22:36;;;;;;;15.07;2.90;;;4.20;94.60;;;;;;5082024;28;20421;-79
2021/04/02 05:25:06;;;;;;;13.77;2.75;;;4.30;94.50;;;;;;5077505;28;20045;-79
2021/04/02 05:27:32;;;;;;;17.83;2.22;;;4.30;94.30;;;;;;5081375;28;20044;-79
2021/04/02 05:29:58;;;;;;;11.10;2.75;;;4.30;94.20;;;;;;5079846;28;20078;-78
2021/04/02 05:32:24;;;;;;;8.55;2.75;;;4.40;94.10;;;;;;5079341;28;20467;-79
2021/04/02 05:34:50;;;;;;;9.05;1.85;;;4.40;93.50;;;;;;5080811;28;20075;-78
2021/04/02 05:37:18;;;;;;;7.43;2.10;;;4.50;93.40;;;;;;5075327;28;20726;-78
2021/04/02 05:39:47;;;;;;;7.05;2.08;;;4.60;92.90;;;;;;5086580;28;20053;-79
2021/04/02 05:42:21;;;;;;;11.10;1.50;;;4.60;92.80;;;;;;5076601;28;20162;-77
2021/04/02 05:44:49;;;;;;;8.90;1.90;;;4.70;92.70;;;;;;5082382;28;20025;-79
2021/04/02 05:47:17;;;;;;;10.32;2.00;;;4.70;92.60;;;;;;5084719;28;20800;-80
2021/04/02 05:49:45;;;;;;;10.77;1.98;;;4.80;92.60;;;;;;5103454;28;20187;-79
2021/04/02 05:52:12;;;;;;;8.85;1.67;;;4.80;92.40;;;;;;5088895;28;20040;-80
2021/04/02 05:54:42;;;;;;;9.23;2.85;;;4.70;92.20;;;;;;5086442;28;20105;-80
2021/04/02 05:57:10;;;;;;;10.07;2.08;;;4.80;92.00;;;;;;5079995;28;20036;-80
2021/04/02 05:59:42;;;;;;;7.97;1.73;;;4.90;91.80;;;;;;5087048;28;20075;-80
2021/04/02 06:02:13;;;;;;;9.68;1.50;;;4.90;91.50;;;;;;5077363;28;20048;-80
2021/04/02 06:04:39;;;;;;;5.93;1.40;;;4.90;91.30;;;;;;5088259;28;20044;-80
2021/04/02 06:07:05;;;;;;;7.13;1.48;;;5.00;91.30;;;;;;5090662;28;20044;-80
2021/04/02 06:09:32;;;;;;;9.55;1.98;;;5.00;91.20;;;;;;5090757;28;20048;-80
2021/04/02 06:11:58;;;;;;;9.27;1.60;;;5.10;90.80;;;;;;5079141;28;20078;-79
2021/04/02 06:14:24;;;;;;;7.20;1.48;;;5.10;90.70;;;;;;5085502;28;20453;-79
2021/04/02 06:16:52;;;;;;;10.02;1.50;;;5.10;90.60;;;;;;5088061;28;20520;-79
2021/04/02 06:19:18;;;;;;;8.00;1.67;;;5.20;90.80;;;;;;5087211;28;20135;-79
2021/04/02 06:21:56;;;;;;;9.13;1.75;;;5.20;90.90;;;;;;5075889;28;20051;-80
2021/04/02 06:24:42;;;;;;;9.38;2.15;;;5.20;90.70;;;;;;5079997;28;20044;-79
2021/04/02 06:27:10;;;;;;;11.55;2.35;;;5.30;90.70;;;;;;5090917;28;20059;-79
2021/04/02 06:29:42;;;;;;;7.63;1.23;;;5.30;90.50;;;;;;5083499;28;20055;-80
2021/04/02 06:32:12;;;;;;;12.55;1.92;;;5.30;90.40;;;;;;5077549;28;20036;-79
2021/04/02 06:34:49;;;;;;;10.57;2.10;;;5.40;90.40;;;;;;5087934;28;20042;-79
2021/04/02 06:37:17;;;;;;;7.90;1.33;;;5.40;90.30;;;;;;5079219;28;20379;-79
2021/04/02 06:39:53;;;;;;;9.68;1.67;;;5.50;90.50;;;;;;5070083;28;20059;-79
2021/04/02 06:42:32;;;;;;;10.95;1.90;;;5.60;90.50;;;;;;5089935;28;20079;-79
2021/04/02 06:45:19;;;;;;;9.13;1.80;;;5.60;90.00;;;;;;5085339;28;20053;-79
2021/04/02 06:47:46;;;;;;;11.60;2.22;;;5.60;89.50;;;;;;5083763;28;20468;-79
2021/04/02 06:50:20;;;;;;;11.52;2.70;;;5.70;88.80;;;;;;5095058;28;20079;-79
2021/04/02 06:52:52;;;;;;;10.27;2.10;;;5.70;88.50;;;;;;5078783;28;20097;-79
2021/04/02 06:55:21;;;;;;;6.93;1.35;;;5.80;88.50;;;;;;5075195;28;20510;-80
2021/04/02 06:57:49;;;;;;;9.65;1.50;;;5.80;87.70;;;;;;5083106;28;20058;-80
2021/04/02 07:00:20;;;;;;;16.00;2.03;;;5.80;87.50;;;;;;5082870;28;20048;-79
2021/04/02 07:02:50;;;;;;;7.03;1.60;;;5.90;87.30;;;;;;5086474;28;20249;-79
2021/04/02 07:05:21;;;;;;;7.45;1.30;;;5.80;85.90;;;;;;5080970;28;20400;-79
2021/04/02 07:08:04;;;;;;;12.85;1.85;;;5.80;85.60;;;;;;5077345;28;20040;-79
2021/04/02 07:10:39;;;;;;;7.70;1.15;;;5.80;85.70;;;;;;5074303;28;20529;-79
2021/04/02 07:13:07;;;;;;;8.85;1.45;;;5.80;84.80;;;;;;5088675;28;20032;-79
2021/04/02 07:15:35;;;;;;;13.43;1.75;;;5.90;84.90;;;;;;5078021;28;20048;-79
2021/04/02 07:18:04;;;;;;;6.65;1.80;;;5.80;84.20;;;;;;5085855;28;20043;-79
2021/04/02 07:20:30;;;;;;;9.70;1.70;;;5.90;84.40;;;;;;5081628;28;20040;-79
2021/04/02 07:22:56;;;;;;;17.92;1.67;;;5.90;84.30;;;;;;5083421;28;20050;-79
2021/04/02 07:25:23;;;;;;;10.35;2.00;;;6.00;84.30;;;;;;5079213;28;20102;-79
2021/04/02 07:27:51;;;;;;;12.30;1.60;;;6.00;83.90;;;;;;5092668;28;20052;-79
2021/04/02 07:30:22;;;;;;;12.43;1.40;;;6.10;84.20;;;;;;5076523;28;20055;-79
2021/04/02 07:32:50;;;;;;;10.48;1.85;;;6.10;83.80;;;;;;5088108;28;20134;-79
2021/04/02 07:35:18;;;;;;;12.85;1.92;;;6.10;83.50;;;;;;5078337;28;20073;-79
2021/04/02 07:37:53;;;;;;;13.18;2.63;;;6.10;83.70;;;;;;5087328;28;20405;-80
2021/04/02 07:40:21;;;;;;;;;;;6.20;84.60;;;;;;5079282;28;20057;-80
2021/04/02 07:42:57;;;;;;;13.43;1.95;;;6.20;83.70;;;;;;5089108;28;20387;-79
2021/04/02 07:45:25;;;;;;;8.50;1.73;;;6.30;83.70;;;;;;5073668;28;20044;-80
2021/04/02 07:47:54;;;;;;;14.93;2.30;;;6.30;84.30;;;;;;5084378;28;20043;-80
2021/04/02 07:50:46;;;;;;;8.68;1.52;;;6.40;84.60;;;;;;5073424;28;20456;-81
2021/04/02 07:53:23;;;;;;;10.55;1.70;;;6.40;83.90;;;;;;5076903;28;20561;-81
2021/04/02 07:55:59;;;;;;;8.23;1.48;;;6.40;82.40;;;;;;5072670;28;20032;-82
2021/04/02 07:58:27;;;;;;;9.60;1.83;;;6.50;82.90;;;;;;5084450;28;20036;-80
2021/04/02 08:00:58;;;;;;;14.93;2.40;;;6.50;82.50;;;;;;5077464;28;20237;-80
2021/04/02 08:03:30;;;;;;;9.98;1.48;;;6.50;82.10;;;;;;5084942;28;20043;-80
2021/04/02 08:06:07;;;;;;;12.25;1.88;;;6.60;81.50;;;;;;5069954;28;20037;-80
2021/04/02 08:08:44;;;;;;;12.82;2.08;;;6.60;80.90;;;;;;5077923;28;20109;-81
2021/04/02 08:11:46;;;;;;;13.32;2.75;;;6.60;79.80;;;;;;5073271;28;20700;-80
2021/04/02 08:14:13;;;;;;;12.10;1.90;;;6.60;79.30;;;;;;5077413;28;20075;-80
2021/04/02 08:16:43;;;;;;;10.23;1.70;;;6.70;80.20;;;;;;5070222;28;20339;-79
2021/04/02 08:19:19;;;;;;;11.70;1.90;;;6.70;79.80;;;;;;5073189;28;20045;-77
2021/04/02 08:22:00;;;;;;;8.27;1.75;;;6.70;80.20;;;;;;5075767;28;20037;-79
2021/04/02 08:24:35;;;;;;;8.35;2.03;;;6.70;79.50;;;;;;5076341;28;20040;-78
2021/04/02 08:27:01;;;;;;;6.95;1.83;;;6.80;79.60;;;;;;5067459;28;20048;-78
2021/04/02 08:29:29;;;;;;;10.27;2.03;;;6.80;79.00;;;;;;5091259;28;20072;-78
2021/04/02 08:32:02;;;;;;;9.80;1.83;;;6.80;79.60;;;;;;5075521;28;20071;-79
2021/04/02 08:34:31;;;;;;;14.65;4.03;;;6.90;80.50;;;;;;5073262;28;20406;-77
2021/04/02 08:36:59;;;;;;;10.13;1.80;;;6.90;79.50;;;;;;5079064;28;20146;-78
2021/04/02 08:39:26;;;;;;;11.38;1.83;;;6.90;79.30;;;;;;5076602;28;20047;-77
2021/04/02 08:42:02;;;;;;;12.73;2.13;;;6.90;79.20;;;;;;5073424;28;20048;-76
2021/04/02 08:44:33;;;;;;;11.88;1.77;;;6.90;78.90;;;;;;5077256;28;20051;-78
2021/04/02 08:47:14;;;;;;;14.43;2.10;;;6.90;79.00;;;;;;5090515;28;20146;-77
2021/04/02 08:49:52;;;;;;;8.30;1.58;;;6.90;78.90;;;;;;5067747;28;20080;-77
2021/04/02 08:52:20;;;;;;;6.78;1.65;;;7.00;78.70;;;;;;5078847;28;20047;-77
2021/04/02 08:54:51;;;;;;;10.68;1.73;;;7.10;78.80;;;;;;5073855;28;20036;-78
2021/04/02 08:57:17;;;;;;;13.50;1.70;;;7.20;77.90;;;;;;5079473;28;20052;-78
2021/04/02 08:59:45;;;;;;;11.25;1.67;;;7.30;78.10;;;;;;5071694;28;20040;-77
2021/04/02 09:02:14;;;;;;;12.30;2.47;;;7.40;78.10;;;;;;5075479;28;20036;-77
2021/04/02 09:04:45;;;;;;;9.90;1.92;;;7.50;77.60;;;;;;5068855;28;20059;-78
2021/04/02 09:07:11;;;;;;;12.77;2.05;;;7.60;77.50;;;;;;5088900;28;20492;-78
2021/04/02 09:09:46;;;;;;;10.77;1.45;;;7.80;77.20;;;;;;5073420;28;20041;-78
2021/04/02 09:12:21;;;;;;;9.95;1.67;;;7.80;76.30;;;;;;5080470;28;20060;-78
2021/04/02 09:14:50;;;;;;;10.38;1.52;;;7.90;75.70;;;;;;5071587;28;20049;-78
2021/04/02 09:17:23;;;;;;;10.95;2.22;;;8.00;76.10;;;;;;5075543;28;20468;-77
2021/04/02 09:19:51;;;;;;;11.80;2.05;;;8.10;75.30;;;;;;5085900;28;20511;-77
2021/04/02 09:22:17;;;;;;;11.98;1.60;;;8.00;74.10;;;;;;5076307;28;20044;-78
2021/04/02 09:24:44;;;;;;;9.88;1.70;;;8.00;74.30;;;;;;5080442;28;20056;-77
2021/04/02 09:27:13;;;;;;;13.75;2.13;;;7.90;74.10;;;;;;5075342;28;20064;-78
2021/04/02 09:29:42;;;;;;;8.55;1.60;;;7.90;74.30;;;;;;5071629;28;20043;-78
2021/04/02 09:32:08;;;;;;;12.30;1.67;;;7.90;74.20;;;;;;5077329;28;20048;-77
2021/04/02 09:34:35;;;;;;;9.65;1.30;;;7.90;73.70;;;;;;5078461;28;20094;-77
2021/04/02 09:37:01;;;;;;;14.30;2.05;;;8.00;74.10;;;;;;5080384;28;20057;-77
2021/04/02 09:39:29;;;;;;;10.05;2.40;;;8.00;74.80;;;;;;5073487;28;20048;-77
2021/04/02 09:41:57;;;;;;;11.40;2.13;;;8.20;75.00;;;;;;5077753;28;20121;-78
2021/04/02 09:44:29;;;;;;;9.57;1.48;;;8.30;74.40;;;;;;5091158;28;20505;-79
2021/04/02 09:47:03;;;;;;;7.82;1.40;;;8.50;74.10;;;;;;5086332;28;20032;-78
2021/04/02 09:49:31;;;;;;;7.97;1.45;;;8.50;73.10;;;;;;5084229;28;20047;-78
2021/04/02 09:51:58;;;;;;;10.57;1.98;;;8.30;72.40;;;;;;5079658;28;20115;-80
2021/04/02 09:54:26;;;;;;;9.13;1.48;;;8.30;72.50;;;;;;5080355;28;20056;-77
2021/04/02 09:56:54;;;;;;;9.57;1.67;;;8.20;72.50;;;;;;5085570;28;20052;-78
2021/04/02 09:59:20;;;;;;;7.22;1.25;;;8.10;73.80;;;;;;5088087;28;20039;-78
2021/04/02 10:01:47;;;;;;;11.27;2.10;;;8.20;73.50;;;;;;5083177;28;20068;-78
2021/04/02 10:04:15;;;;;;;8.30;1.45;;;8.10;72.80;;;;;;5083466;28;20031;-79
2021/04/02 10:06:41;;;;;;;9.15;1.35;;;8.10;73.30;;;;;;5074928;28;20051;-78
2021/04/02 10:09:08;;;;;;;6.82;1.02;;;8.10;73.80;;;;;;5075947;28;20067;-78
2021/04/02 10:11:35;;;;;;;10.95;1.65;;;8.10;73.80;;;;;;5078085;28;20167;-78
2021/04/02 10:14:01;;;;;;;9.38;1.65;;;8.00;73.80;;;;;;5077351;28;20037;-78
2021/04/02 10:16:27;;;;;;;8.90;1.65;;;8.10;74.30;;;;;;5076149;28;20157;-78
2021/04/02 10:18:53;;;;;;;7.18;1.17;;;8.10;74.30;;;;;;5087357;28;20078;-80
2021/04/02 10:21:21;;;;;;;9.82;1.35;;;8.10;74.30;;;;;;5074583;28;20127;-81
2021/04/02 10:23:47;;;;;;;8.38;1.30;;;8.10;73.80;;;;;;5084314;28;20059;-81
2021/04/02 10:26:15;;;;;;;10.95;1.60;;;8.00;73.80;;;;;;5087625;28;20038;-81
2021/04/02 10:28:41;;;;;;;6.72;1.65;;;8.00;74.40;;;;;;5086075;28;20048;-80
2021/04/02 10:31:07;;;;;;;8.60;1.35;;;8.00;73.70;;;;;;5089997;28;20073;-79
2021/04/02 10:33:34;;;;;;;11.07;1.73;;;7.90;73.70;;;;;;5057278;28;20051;-79
2021/04/02 10:36:03;;;;;;;9.20;1.63;;;7.90;74.30;;;;;;5085119;28;20122;-79
2021/04/02 10:38:29;;;;;;;13.07;1.45;;;7.90;74.30;;;;;;5078361;28;20078;-78
2021/04/02 10:41:01;;;;;;;10.00;1.52;;;7.90;74.60;;;;;;5075911;28;20097;-78
2021/04/02 10:43:44;;;;;;;8.80;1.70;;;7.90;75.10;;;;;;5080014;28;20044;-80
2021/04/02 10:46:15;;;;;;;7.57;1.35;;;7.90;76.30;;;;;;5085028;28;20036;-80
2021/04/02 10:48:41;;;;;;;7.25;1.40;;;7.80;77.20;;;;;;5090245;28;20104;-80
2021/04/02 10:51:08;;;;;;;9.23;2.17;;;7.70;77.80;;;;;;5088721;28;20064;-83
2021/04/02 10:53:34;;;;;;;16.98;1.75;;;7.70;77.90;;;;;;5086085;28;20166;-80
2021/04/02 10:56:03;;;;;;;13.60;2.20;;;7.80;78.30;;;;;;5096097;28;20032;-80
2021/04/02 10:58:30;;;;;;;9.10;1.90;;;7.80;77.80;;;;;;5082061;28;20048;-80
2021/04/02 11:00:57;;;;;;;9.55;1.55;;;7.90;77.50;;;;;;5078164;28;20048;-80
2021/04/02 11:03:26;;;;;;;10.82;1.30;;;8.00;77.00;;;;;;5082403;28;20036;-80
2021/04/02 11:05:52;;;;;;;9.57;1.77;;;8.00;76.30;;;;;;5083949;28;20032;-81
2021/04/02 11:08:20;;;;;;;11.35;1.92;;;8.00;77.20;;;;;;5085783;28;20119;-80
2021/04/02 11:10:49;;;;;;;9.13;3.65;;;8.00;76.10;;;;;;5085391;28;20058;-79
2021/04/02 11:13:15;;;;;;;9.85;1.80;;;8.00;76.40;;;;;;5085446;28;20091;-80
2021/04/02 11:16:05;;;;;;;5.35;1.25;;;8.00;76.60;;;;;;5076530;28;20051;-81
2021/04/02 11:18:33;;;;;;;8.85;1.40;;;8.00;75.80;;;;;;5086477;28;20450;-80
2021/04/02 11:21:08;;;;;;;6.72;1.45;;;8.00;75.70;;;;;;5089631;28;20048;-80
2021/04/02 11:23:34;;;;;;;6.53;1.13;;;8.10;74.60;;;;;;5083867;28;20070;-80
2021/04/02 11:25:59;;;;;;;11.88;1.65;;;8.20;74.00;;;;;;5083735;28;20033;-80
2021/04/02 11:28:27;;;;;;;8.55;1.45;;;8.20;73.30;;;;;;5085642;28;20036;-80
2021/04/02 11:30:55;;;;;;;10.77;1.25;;;8.20;73.60;;;;;;5085244;28;20067;-80
2021/04/02 11:33:21;;;;;;;7.88;1.40;;;8.20;73.60;;;;;;5080611;28;20041;-80
2021/04/02 11:35:48;;;;;;;11.93;2.20;;;8.10;73.80;;;;;;5078432;28;20063;-81
2021/04/02 11:38:14;;;;;;;9.05;1.70;;;8.00;75.00;;;;;;5094536;28;20044;-81
2021/04/02 11:40:40;;;;;;;11.05;2.00;;;7.80;76.10;;;;;;5063124;28;20097;-80
2021/04/02 11:43:06;;;;;;;8.38;1.73;;;7.70;77.00;;;;;;5086762;28;20040;-80
2021/04/02 11:45:35;;;;;;;10.43;2.15;;;7.60;77.80;;;;;;5081870;28;20052;-80
2021/04/02 11:48:10;;;;;;;9.98;1.80;;;7.70;78.50;;;;;;5092149;28;20369;-81
2021/04/02 11:50:45;;;;;;;7.88;1.55;;;7.60;78.60;;;;;;5085900;28;20112;-81
2021/04/02 11:53:27;;;;;;;8.23;1.35;;;7.70;78.70;;;;;;5082928;28;20144;-80
2021/04/02 11:55:59;;;;;;;8.35;1.38;;;7.60;78.70;;;;;;5083415;28;20481;-80
2021/04/02 11:58:28;;;;;;;8.80;1.70;;;7.70;78.50;;;;;;5089610;28;20140;-80
2021/04/02 12:01:00;;;;;;;8.45;1.60;;;7.50;78.40;;;;;;5078989;28;20056;-80
2021/04/02 12:03:33;;;;;;;5.72;0.93;;;7.70;78.10;;;;;;5078017;28;20040;-80
2021/04/02 12:06:01;;;;;;;5.93;1.10;;;7.80;77.50;;;;;;5090173;28;20049;-79
2021/04/02 12:08:28;;;;;;;7.15;1.30;;;8.00;76.70;;;;;;5086686;28;20047;-79
2021/04/02 12:10:55;;;;;;;5.30;1.77;;;8.10;76.50;;;;;;5081723;28;20036;-81
2021/04/02 12:13:21;;;;;;;5.35;1.25;;;8.30;75.80;;;;;;5084970;28;20096;-81
2021/04/02 12:16:17;;;;;;;11.10;1.60;;;8.40;75.20;;;;;;5079265;28;20048;-80
2021/04/02 12:18:54;;;;;;;9.32;1.40;;;8.50;74.30;;;;;;5079223;28;20396;-81
2021/04/02 12:21:25;;;;;;;5.90;1.27;;;8.70;74.60;;;;;;5078713;28;20032;-80
2021/04/02 12:23:58;;;;;;;8.98;1.73;;;8.70;73.90;;;;;;5086069;28;20032;-80
2021/04/02 12:26:27;;;;;;;8.15;1.38;;;8.70;72.00;;;;;;5076342;28;20044;-80
2021/04/02 12:28:53;;;;;;;7.50;1.60;;;8.60;72.90;;;;;;5061607;28;20114;-80
2021/04/02 12:31:19;;;;;;;5.95;2.15;;;8.50;73.10;;;;;;5075816;28;20076;-80
2021/04/02 12:33:46;;;;;;;7.78;1.33;;;8.50;72.80;;;;;;5090039;28;20115;-80
2021/04/02 12:36:12;;;;;;;11.30;1.48;;;8.50;72.80;;;;;;5075852;28;20032;-80
2021/04/02 12:38:38;;;;;;;9.27;2.03;;;8.50;73.10;;;;;;5101451;28;20050;-80
2021/04/02 12:41:04;;;;;;;11.35;1.75;;;8.60;73.60;;;;;;5078911;28;20059;-80
2021/04/02 12:43:36;;;;;;;7.68;1.17;;;8.60;72.50;;;;;;5073368;28;20044;-79
2021/04/02 12:46:02;;;;;;;11.15;1.90;;;8.50;71.80;;;;;;5074805;28;20582;-79
2021/04/02 12:48:29;;;;;;;6.30;1.52;;;8.50;72.10;;;;;;5083414;28;20144;-79
2021/04/02 12:50:56;;;;;;;7.53;1.23;;;8.50;72.00;;;;;;5078994;28;20032;-79
2021/04/02 12:53:22;;;;;;;10.13;1.55;;;8.60;72.00;;;;;;5080880;28;20421;-79
2021/04/02 12:55:49;;;;;;;8.07;1.48;;;8.80;71.60;;;;;;5079255;28;20092;-80
2021/04/02 12:58:15;;;;;;;7.15;1.30;;;8.80;70.90;;;;;;5079433;28;20086;-79
2021/04/02 13:00:41;;;;;;;6.88;1.42;;;8.80;70.70;;;;;;5081361;28;20053;-79
2021/04/02 13:03:07;;;;;;;13.38;1.65;;;8.80;71.10;;;;;;5080793;28;20511;-80